Time;durP1;ratioP1;P1;durP2;ratioP2;P2;SDS_P1;SDS_P2;PMS_P1;PMS_P2;Temp;Humidity;BMP_temperature;BMP_pressure;BME280_temperature;BME280_humidity;BME280_pressure;Samples;Min_cycle;Max_cycle;Signal;HPM_P1;HPM_P2
2021/03/10 00:00:23;;;;;;;60.10;29.60;;;;;;;;;;5072902;28;20379;-61
2021/03/10 00:02:49;;;;;;;61.20;31.70;;;;;;;;;;5072970;28;20110;-61
2021/03/10 00:05:14;;;;;;;76.80;36.38;;;;;;;;;;5073260;28;20105;-62
2021/03/10 00:07:40;;;;;;;55.40;27.40;;;;;;;;;;5055409;28;20032;-61
2021/03/10 00:10:08;;;;;;;54.60;27.65;;;;;;;;;;5073090;28;20029;-61
2021/03/10 00:12:35;;;;;;;53.42;27.70;;;;;;;;;;5072810;28;20479;-62
2021/03/10 00:15:00;;;;;;;53.00;26.40;;;;;;;;;;5073029;28;20028;-62
2021/03/10 00:17:26;;;;;;;48.70;25.02;;;;;;;;;;5072850;28;20027;-62
2021/03/10 00:19:52;;;;;;;43.70;23.80;;;;;;;;;;5055044;28;20020;-62
2021/03/10 00:22:17;;;;;;;46.90;25.10;;;;;;;;;;5073047;28;20029;-62
2021/03/10 00:24:44;;;;;;;183.55;62.55;;;;;;;;;;5072564;28;20112;-62
2021/03/10 00:27:10;;;;;;;84.07;37.28;;;;;;;;;;5054992;28;20028;-62
2021/03/10 00:29:35;;;;;;;143.48;62.53;;;;;;;;;;5038761;28;20437;-62
2021/03/10 00:32:01;;;;;;;129.52;56.70;;;;;;;;;;5073580;28;20386;-62
2021/03/10 00:34:26;;;;;;;99.90;46.63;;;;;;;;;;5076578;28;20016;-61
2021/03/10 00:36:52;;;;;;;113.72;53.08;;;;;;;;;;5058666;28;20043;-61
2021/03/10 00:39:18;;;;;;;81.63;38.33;;;;;;;;;;5076657;28;20020;-62
2021/03/10 00:41:43;;;;;;;62.22;31.83;;;;;;;;;;5076491;28;20028;-62
2021/03/10 00:44:09;;;;;;;53.38;26.58;;;;;;;;;;5076571;28;20060;-61
2021/03/10 00:46:34;;;;;;;55.40;26.17;;;;;;;;;;5076404;28;20021;-62
2021/03/10 00:49:00;;;;;;;62.08;28.10;;;;;;;;;;5076404;28;20478;-62
2021/03/10 00:51:25;;;;;;;57.40;28.38;;;;;;;;;;5076017;28;20043;-61
2021/03/10 00:53:51;;;;;;;60.80;33.15;;;;;;;;;;5076494;28;20364;-61
2021/03/10 00:56:17;;;;;;;58.92;29.88;;;;;;;;;;5076657;28;20079;-62
2021/03/10 00:58:43;;;;;;;52.33;28.05;;;;;;;;;;5076155;28;20447;-62
2021/03/10 01:01:09;;;;;;;53.95;28.20;;;;;;;;;;5076080;28;20039;-61
2021/03/10 01:03:34;;;;;;;55.95;29.75;;;;;;;;;;5058432;28;20021;-62
2021/03/10 01:06:06;;;;;;;51.25;27.55;;;;;;;;;;5076452;28;20029;-62
2021/03/10 01:08:32;;;;;;;52.08;27.58;;;;;;;;;;5057956;28;20068;-62
2021/03/10 01:10:58;;;;;;;49.15;26.25;;;;;;;;;;5075781;28;20440;-62
2021/03/10 01:13:23;;;;;;;48.15;25.92;;;;;;;;;;5057966;28;20082;-61
2021/03/10 01:15:49;;;;;;;46.13;25.48;;;;;;;;;;5076027;28;20378;-62
2021/03/10 01:18:14;;;;;;;59.25;28.77;;;;;;;;;;5074558;28;20145;-61
2021/03/10 01:20:40;;;;;;;53.72;28.67;;;;;;;;;;5073576;28;20033;-62
2021/03/10 01:23:05;;;;;;;51.78;26.42;;;;;;;;;;5049148;28;20090;-62
2021/03/10 01:25:30;;;;;;;54.60;28.02;;;;;;;;;;5055598;28;20021;-62
2021/03/10 01:27:57;;;;;;;51.20;25.73;;;;;;;;;;5055806;28;20024;-62
2021/03/10 01:30:23;;;;;;;52.03;28.02;;;;;;;;;;5055716;28;20099;-62
2021/03/10 01:32:49;;;;;;;57.13;28.00;;;;;;;;;;5055621;28;20032;-62
2021/03/10 01:35:14;;;;;;;66.18;32.03;;;;;;;;;;5037892;28;20071;-62
2021/03/10 01:37:40;;;;;;;62.67;31.75;;;;;;;;;;5055530;28;20033;-62
2021/03/10 01:40:10;;;;;;;54.45;28.10;;;;;;;;;;5055327;28;20048;-62
2021/03/10 01:42:35;;;;;;;61.60;30.38;;;;;;;;;;5054882;28;20104;-62
2021/03/10 01:45:04;;;;;;;73.78;37.58;;;;;;;;;;5055401;28;20108;-62
2021/03/10 01:47:30;;;;;;;80.55;38.13;;;;;;;;;;5055325;28;20075;-62
2021/03/10 01:49:56;;;;;;;87.25;42.88;;;;;;;;;;5072090;28;20025;-62
2021/03/10 01:52:21;;;;;;;83.03;41.35;;;;;;;;;;5075196;28;20040;-62
2021/03/10 01:54:47;;;;;;;77.93;38.90;;;;;;;;;;5075182;28;20032;-62
2021/03/10 01:57:12;;;;;;;55.05;28.38;;;;;;;;;;5057120;28;20463;-62
2021/03/10 01:59:38;;;;;;;55.53;27.75;;;;;;;;;;5074790;28;20047;-62
2021/03/10 02:02:03;;;;;;;59.65;30.88;;;;;;;;;;5056963;28;20115;-62
2021/03/10 02:04:29;;;;;;;57.25;28.23;;;;;;;;;;5075037;28;20509;-62
2021/03/10 02:06:59;;;;;;;54.35;27.88;;;;;;;;;;5074940;28;20031;-62
2021/03/10 02:09:37;;;;;;;68.37;30.97;;;;;;;;;;5074863;28;20429;-61
2021/03/10 02:12:14;;;;;;;63.30;29.73;;;;;;;;;;5074170;28;20795;-62
2021/03/10 02:14:47;;;;;;;66.25;29.63;;;;;;;;;;5057014;28;20459;-61
2021/03/10 02:17:15;;;;;;;61.30;30.02;;;;;;;;;;5074498;28;20028;-60
2021/03/10 02:20:16;;;;;;;66.68;32.35;;;;;;;;;;5074805;28;20028;-61
2021/03/10 02:22:49;;;;;;;68.00;32.10;;;;;;;;;;4974366;28;20503;-60
2021/03/10 02:25:32;;;;;;;66.40;31.38;;;;;;;;;;5040901;28;20044;-60
2021/03/10 02:27:59;;;;;;;74.10;32.38;;;;;;;;;;5056611;28;20101;-61
2021/03/10 02:30:28;;;;;;;62.45;30.77;;;;;;;;;;5074348;28;20013;-60
2021/03/10 02:32:53;;;;;;;55.30;25.63;;;;;;;;;;5074246;28;20052;-61
2021/03/10 02:35:20;;;;;;;52.22;25.38;;;;;;;;;;5074158;28;20463;-61
2021/03/10 02:37:46;;;;;;;48.28;24.38;;;;;;;;;;5073969;28;20029;-61
2021/03/10 02:40:15;;;;;;;51.88;23.83;;;;;;;;;;5073910;28;20021;-61
2021/03/10 02:42:40;;;;;;;51.92;25.42;;;;;;;;;;5074100;28;20029;-61
2021/03/10 02:45:06;;;;;;;58.08;27.95;;;;;;;;;;5074203;28;20447;-61
2021/03/10 02:47:32;;;;;;;47.47;24.85;;;;;;;;;;5073908;28;20021;-61
2021/03/10 02:49:58;;;;;;;51.85;25.52;;;;;;;;;;5073651;28;20065;-62
2021/03/10 02:52:24;;;;;;;47.28;24.70;;;;;;;;;;5073623;28;20051;-62
2021/03/10 02:54:50;;;;;;;44.63;23.38;;;;;;;;;;5073105;28;20036;-61
2021/03/10 02:57:16;;;;;;;46.33;24.83;;;;;;;;;;5073653;28;20146;-61
2021/03/10 02:59:44;;;;;;;48.90;24.42;;;;;;;;;;5056087;28;20055;-61
2021/03/10 03:02:10;;;;;;;47.70;22.58;;;;;;;;;;5073952;28;20039;-62
2021/03/10 03:04:39;;;;;;;37.92;21.90;;;;;;;;;;5073738;28;20103;-61
2021/03/10 03:07:05;;;;;;;36.10;20.95;;;;;;;;;;5073577;28;20020;-62
2021/03/10 03:09:32;;;;;;;35.95;19.77;;;;;;;;;;5055876;28;20385;-62
2021/03/10 03:11:58;;;;;;;29.90;17.77;;;;;;;;;;5073947;28;20024;-62
2021/03/10 03:14:23;;;;;;;33.17;18.88;;;;;;;;;;5073835;28;20012;-62
2021/03/10 03:16:49;;;;;;;32.85;18.00;;;;;;;;;;5073427;28;20032;-62
2021/03/10 03:19:15;;;;;;;30.40;17.73;;;;;;;;;;5056052;28;20020;-62
2021/03/10 03:21:41;;;;;;;31.60;17.15;;;;;;;;;;5074323;28;20028;-61
2021/03/10 03:24:07;;;;;;;29.63;15.68;;;;;;;;;;5073492;28;20031;-61
2021/03/10 03:26:33;;;;;;;30.73;17.00;;;;;;;;;;5073366;28;20025;-61
2021/03/10 03:28:59;;;;;;;35.65;18.10;;;;;;;;;;5073957;28;20029;-61
2021/03/10 03:31:26;;;;;;;32.05;18.20;;;;;;;;;;5073891;28;20115;-61
2021/03/10 03:33:52;;;;;;;35.20;20.15;;;;;;;;;;5073281;28;20013;-61
2021/03/10 03:36:17;;;;;;;36.90;22.13;;;;;;;;;;5073305;28;20043;-61
2021/03/10 03:38:42;;;;;;;42.00;24.98;;;;;;;;;;5073771;28;20028;-61
2021/03/10 03:41:08;;;;;;;42.78;24.88;;;;;;;;;;5073693;28;20139;-61
2021/03/10 03:43:34;;;;;;;47.00;25.83;;;;;;;;;;5073450;28;20020;-61
2021/03/10 03:45:59;;;;;;;41.75;24.35;;;;;;;;;;5073437;28;20067;-61
2021/03/10 03:48:31;;;;;;;41.03;23.27;;;;;;;;;;5073398;28;20009;-61
2021/03/10 03:50:56;;;;;;;44.13;24.70;;;;;;;;;;5073419;28;20051;-62
2021/03/10 03:53:22;;;;;;;44.22;24.27;;;;;;;;;;5073370;28;20028;-61
2021/03/10 03:55:47;;;;;;;41.25;23.20;;;;;;;;;;5073172;28;20039;-61
2021/03/10 03:58:13;;;;;;;39.58;20.80;;;;;;;;;;5073010;28;20024;-61
2021/03/10 04:00:38;;;;;;;36.05;20.38;;;;;;;;;;5073314;28;20025;-61
2021/03/10 04:03:04;;;;;;;37.55;19.90;;;;;;;;;;5072811;28;20016;-62
2021/03/10 04:05:30;;;;;;;32.25;19.67;;;;;;;;;;5073229;28;20033;-61
2021/03/10 04:07:59;;;;;;;36.20;20.10;;;;;;;;;;5076956;28;20033;-61
2021/03/10 04:10:29;;;;;;;34.17;19.35;;;;;;;;;;5077388;28;20033;-61
2021/03/10 04:12:54;;;;;;;35.00;19.40;;;;;;;;;;5077365;28;20021;-61
2021/03/10 04:15:20;;;;;;;41.97;20.77;;;;;;;;;;5076872;28;20021;-61
2021/03/10 04:17:46;;;;;;;34.88;19.35;;;;;;;;;;5076859;28;20013;-61
2021/03/10 04:20:16;;;;;;;32.80;18.27;;;;;;;;;;5076959;28;20034;-61
2021/03/10 04:22:42;;;;;;;33.35;18.95;;;;;;;;;;5059394;28;20032;-61
2021/03/10 04:25:09;;;;;;;39.58;21.30;;;;;;;;;;5077059;28;20467;-61
2021/03/10 04:27:34;;;;;;;45.72;25.88;;;;;;;;;;5059494;28;20043;-61
2021/03/10 04:30:00;;;;;;;48.78;27.05;;;;;;;;;;5059338;28;20455;-61
2021/03/10 04:32:25;;;;;;;47.90;26.38;;;;;;;;;;5058930;28;20021;-61
2021/03/10 04:34:52;;;;;;;46.17;22.25;;;;;;;;;;5076846;28;20094;-61
2021/03/10 04:37:17;;;;;;;43.67;20.05;;;;;;;;;;5076636;28;20059;-61
2021/03/10 04:39:43;;;;;;;28.50;16.75;;;;;;;;;;5076517;28;20068;-61
2021/03/10 04:42:09;;;;;;;29.77;16.58;;;;;;;;;;5076703;28;20052;-61
2021/03/10 04:44:40;;;;;;;29.48;17.13;;;;;;;;;;5076287;28;20513;-61
2021/03/10 04:47:13;;;;;;;30.38;17.42;;;;;;;;;;5076729;28;20199;-61
2021/03/10 04:49:38;;;;;;;34.95;18.70;;;;;;;;;;5076329;28;20074;-62
2021/03/10 04:52:04;;;;;;;35.15;18.23;;;;;;;;;;5076477;28;20048;-61
2021/03/10 04:54:29;;;;;;;32.08;17.90;;;;;;;;;;5076540;28;20035;-61
2021/03/10 04:56:55;;;;;;;39.55;19.38;;;;;;;;;;5076304;28;20025;-62
2021/03/10 04:59:20;;;;;;;34.63;18.70;;;;;;;;;;5057814;28;20043;-63
2021/03/10 05:01:46;;;;;;;39.97;21.77;;;;;;;;;;5076635;28;20069;-62
2021/03/10 05:04:12;;;;;;;45.08;23.58;;;;;;;;;;5075935;28;20466;-62
2021/03/10 05:06:37;;;;;;;41.00;24.25;;;;;;;;;;5076074;28;20382;-61
2021/03/10 05:09:04;;;;;;;55.08;32.53;;;;;;;;;;5076448;28;20470;-62
2021/03/10 05:11:29;;;;;;;69.82;39.90;;;;;;;;;;5076128;28;20025;-62
2021/03/10 05:13:55;;;;;;;70.50;39.92;;;;;;;;;;5075973;28;20510;-62
2021/03/10 05:16:20;;;;;;;99.70;53.10;;;;;;;;;;5058110;28;20112;-62
2021/03/10 05:18:46;;;;;;;138.18;68.50;;;;;;;;;;5075106;28;20071;-62
2021/03/10 05:21:11;;;;;;;137.95;70.72;;;;;;;;;;5076014;28;20020;-62
2021/03/10 05:23:41;;;;;;;181.18;90.47;;;;;;;;;;5076138;28;20056;-62
2021/03/10 05:26:07;;;;;;;181.23;92.07;;;;;;;;;;5075856;28;20111;-62
2021/03/10 05:28:32;;;;;;;173.40;80.85;;;;;;;;;;5075592;28;20064;-61
2021/03/10 05:30:58;;;;;;;186.52;86.45;;;;;;;;;;5075923;28;20017;-60
2021/03/10 05:33:24;;;;;;;140.18;67.60;;;;;;;;;;5075532;28;20127;-60
2021/03/10 05:35:49;;;;;;;149.07;72.18;;;;;;;;;;5076010;28;20020;-60
2021/03/10 05:38:14;;;;;;;153.32;77.10;;;;;;;;;;5075009;28;20060;-61
2021/03/10 05:40:40;;;;;;;138.63;68.10;;;;;;;;;;5074591;28;20111;-60
2021/03/10 05:43:06;;;;;;;153.93;77.13;;;;;;;;;;5056632;28;20025;-60
2021/03/10 05:45:31;;;;;;;156.55;80.55;;;;;;;;;;5074591;28;20043;-61
2021/03/10 05:47:57;;;;;;;145.48;71.28;;;;;;;;;;5074986;28;20032;-61
2021/03/10 05:50:22;;;;;;;128.32;65.70;;;;;;;;;;5057223;28;20020;-60
2021/03/10 05:52:48;;;;;;;97.07;52.08;;;;;;;;;;5056954;28;20036;-60
2021/03/10 05:55:17;;;;;;;109.85;65.22;;;;;;;;;;5074790;28;20064;-60
2021/03/10 05:57:44;;;;;;;112.18;68.57;;;;;;;;;;5075436;28;20035;-60
2021/03/10 06:00:10;;;;;;;109.93;59.50;;;;;;;;;;5074877;28;20381;-60
2021/03/10 06:02:37;;;;;;;83.65;47.63;;;;;;;;;;5074911;28;20112;-61
2021/03/10 06:05:02;;;;;;;78.75;44.40;;;;;;;;;;5074812;28;20016;-61
2021/03/10 06:07:30;;;;;;;85.55;45.60;;;;;;;;;;5074773;28;20471;-61
2021/03/10 06:09:55;;;;;;;85.80;44.85;;;;;;;;;;5075279;28;20016;-61
2021/03/10 06:12:21;;;;;;;72.25;38.38;;;;;;;;;;5074983;28;20024;-61
2021/03/10 06:14:46;;;;;;;66.85;37.90;;;;;;;;;;5057045;28;20039;-61
2021/03/10 06:17:12;;;;;;;66.32;36.97;;;;;;;;;;5074734;28;20039;-61
2021/03/10 06:19:43;;;;;;;76.18;43.25;;;;;;;;;;5074572;28;20027;-61
2021/03/10 06:22:10;;;;;;;109.15;62.13;;;;;;;;;;5068213;28;20107;-61
2021/03/10 06:24:35;;;;;;;106.22;58.92;;;;;;;;;;5054693;28;20021;-62
2021/03/10 06:27:01;;;;;;;83.30;45.47;;;;;;;;;;5054421;28;20119;-62
2021/03/10 06:29:26;;;;;;;69.28;37.72;;;;;;;;;;5053743;28;20049;-61
2021/03/10 06:32:02;;;;;;;66.97;37.22;;;;;;;;;;5054015;28;20029;-61
2021/03/10 06:34:28;;;;;;;57.78;34.22;;;;;;;;;;5054220;28;20029;-61
2021/03/10 06:36:53;;;;;;;58.35;32.45;;;;;;;;;;5070510;28;20019;-61
2021/03/10 06:39:29;;;;;;;52.35;29.73;;;;;;;;;;5056700;28;20475;-61
2021/03/10 06:41:55;;;;;;;54.72;29.08;;;;;;;;;;5056488;28;20025;-61
2021/03/10 06:44:27;;;;;;;53.20;29.63;;;;;;;;;;5073652;28;20023;-62
2021/03/10 06:46:53;;;;;;;56.67;30.02;;;;;;;;;;5072390;28;20111;-63
2021/03/10 06:49:18;;;;;;;52.90;29.70;;;;;;;;;;5055875;28;20044;-63
2021/03/10 06:52:11;;;;;;;55.50;29.00;;;;;;;;;;5072212;28;20059;-61
2021/03/10 06:54:37;;;;;;;51.63;26.70;;;;;;;;;;5070193;28;20032;-62
2021/03/10 06:57:05;;;;;;;51.35;25.63;;;;;;;;;;5073827;28;20078;-63
2021/03/10 06:59:40;;;;;;;53.35;27.23;;;;;;;;;;5074138;28;20033;-63
2021/03/10 07:02:26;;;;;;;45.90;26.15;;;;;;;;;;5072900;28;20036;-63
2021/03/10 07:04:55;;;;;;;60.25;29.13;;;;;;;;;;5054984;28;20053;-62
2021/03/10 07:07:21;;;;;;;45.10;25.38;;;;;;;;;;5073317;28;20066;-62
2021/03/10 07:09:47;;;;;;;64.32;36.00;;;;;;;;;;5073590;28;20020;-62
2021/03/10 07:12:14;;;;;;;51.17;28.30;;;;;;;;;;5073272;28;20390;-62
2021/03/10 07:14:39;;;;;;;47.65;25.92;;;;;;;;;;5073530;28;20036;-62
2021/03/10 07:17:05;;;;;;;43.70;23.70;;;;;;;;;;5072006;28;20051;-62
2021/03/10 07:19:31;;;;;;;42.35;22.38;;;;;;;;;;5056802;28;20491;-62
2021/03/10 07:22:17;;;;;;;41.05;22.85;;;;;;;;;;5035715;28;20032;-62
2021/03/10 07:24:42;;;;;;;36.42;20.60;;;;;;;;;;5053490;28;20416;-62
2021/03/10 07:27:10;;;;;;;37.40;20.30;;;;;;;;;;5035575;28;20095;-62
2021/03/10 07:29:36;;;;;;;36.45;21.13;;;;;;;;;;5053529;28;20029;-62
2021/03/10 07:32:04;;;;;;;34.10;20.88;;;;;;;;;;5068823;28;20035;-62
2021/03/10 07:34:30;;;;;;;34.17;19.25;;;;;;;;;;5071921;28;20024;-62
2021/03/10 07:36:56;;;;;;;31.23;19.17;;;;;;;;;;5067910;28;20022;-62
2021/03/10 07:39:26;;;;;;;102.43;80.55;;;;;;;;;;5071690;28;20077;-62
2021/03/10 07:41:52;;;;;;;35.43;23.80;;;;;;;;;;5070041;28;20063;-62
2021/03/10 07:44:24;;;;;;;30.63;19.42;;;;;;;;;;5053788;28;20044;-62
2021/03/10 07:47:02;;;;;;;55.15;34.33;;;;;;;;;;5072039;28;20463;-62
2021/03/10 07:49:28;;;;;;;43.38;30.95;;;;;;;;;;5072556;28;20445;-62
2021/03/10 07:52:07;;;;;;;37.47;22.20;;;;;;;;;;5071238;28;20037;-62
2021/03/10 07:54:33;;;;;;;36.53;27.15;;;;;;;;;;5067995;28;20032;-62
2021/03/10 07:57:10;;;;;;;32.60;20.05;;;;;;;;;;5071746;28;20036;-60
2021/03/10 07:59:37;;;;;;;25.08;13.60;;;;;;;;;;5069500;28;20020;-61
2021/03/10 08:02:06;;;;;;;22.75;13.98;;;;;;;;;;5071588;28;20089;-60
2021/03/10 08:04:31;;;;;;;27.02;16.02;;;;;;;;;;5069457;28;20024;-59
2021/03/10 08:06:57;;;;;;;21.33;12.80;;;;;;;;;;5071691;28;20513;-59
2021/03/10 08:09:24;;;;;;;23.00;15.82;;;;;;;;;;5071463;28;20021;-59
2021/03/10 08:12:03;;;;;;;24.05;15.70;;;;;;;;;;5071751;28;20016;-59
2021/03/10 08:14:38;;;;;;;23.75;11.52;;;;;;;;;;5072799;28;20033;-61
2021/03/10 08:17:05;;;;;;;15.15;9.35;;;;;;;;;;5072961;28;20025;-61
2021/03/10 08:19:30;;;;;;;17.10;10.00;;;;;;;;;;5072973;28;20104;-65
2021/03/10 08:21:57;;;;;;;10.93;7.13;;;;;;;;;;5073100;28;20111;-61
2021/03/10 08:24:25;;;;;;;8.77;6.35;;;;;;;;;;5072924;28;20016;-59
2021/03/10 08:27:00;;;;;;;12.57;7.38;;;;;;;;;;5072886;28;20036;-59
2021/03/10 08:29:26;;;;;;;8.93;5.82;;;;;;;;;;5055338;28;20052;-59
2021/03/10 08:31:52;;;;;;;14.80;9.90;;;;;;;;;;5072575;28;20060;-59
2021/03/10 08:34:29;;;;;;;20.88;11.35;;;;;;;;;;5072130;28;20056;-60
2021/03/10 08:36:55;;;;;;;17.02;10.18;;;;;;;;;;5072680;28;20074;-60
2021/03/10 08:39:20;;;;;;;10.20;7.53;;;;;;;;;;5072864;28;20021;-59
2021/03/10 08:41:47;;;;;;;10.60;6.80;;;;;;;;;;5072678;28;20487;-60
2021/03/10 08:44:14;;;;;;;10.77;7.20;;;;;;;;;;5072746;28;20118;-60
2021/03/10 08:46:43;;;;;;;8.52;6.43;;;;;;;;;;5072770;28;20025;-60
2021/03/10 08:49:28;;;;;;;14.13;8.98;;;;;;;;;;5054797;28;20150;-60
2021/03/10 08:52:03;;;;;;;15.18;8.43;;;;;;;;;;5072120;28;20041;-60
2021/03/10 08:54:29;;;;;;;15.57;8.13;;;;;;;;;;5057502;28;20596;-60
2021/03/10 08:56:55;;;;;;;13.18;8.70;;;;;;;;;;5058385;28;20028;-60
2021/03/10 08:59:21;;;;;;;16.23;9.13;;;;;;;;;;5075134;28;20025;-60
2021/03/10 09:01:47;;;;;;;13.02;8.23;;;;;;;;;;5058370;28;20111;-60
2021/03/10 09:04:20;;;;;;;15.55;8.68;;;;;;;;;;5058588;28;20467;-60
2021/03/10 09:06:46;;;;;;;15.07;8.73;;;;;;;;;;5076324;28;20487;-60
2021/03/10 09:09:11;;;;;;;12.90;8.60;;;;;;;;;;5074596;28;20016;-60
2021/03/10 09:11:37;;;;;;;17.20;9.40;;;;;;;;;;5075762;28;20102;-60
2021/03/10 09:14:33;;;;;;;17.00;10.00;;;;;;;;;;5058098;28;20024;-61
2021/03/10 09:17:02;;;;;;;14.48;8.88;;;;;;;;;;5074594;28;20028;-61
2021/03/10 09:19:36;;;;;;;23.73;12.75;;;;;;;;;;5075996;28;20020;-61
2021/03/10 09:22:06;;;;;;;16.27;9.98;;;;;;;;;;5075091;28;20035;-60
2021/03/10 09:24:44;;;;;;;13.60;8.73;;;;;;;;;;5057830;28;20029;-60
2021/03/10 09:27:21;;;;;;;33.20;15.45;;;;;;;;;;5058386;28;20025;-60
2021/03/10 09:29:46;;;;;;;49.53;14.68;;;;;;;;;;5075909;28;20021;-60
2021/03/10 09:32:13;;;;;;;48.28;15.65;;;;;;;;;;5074904;28;20051;-60
2021/03/10 09:34:38;;;;;;;16.92;8.30;;;;;;;;;;5075368;28;20032;-60
2021/03/10 09:37:09;;;;;;;12.60;7.45;;;;;;;;;;5058011;28;20028;-60
2021/03/10 09:39:37;;;;;;;12.32;8.40;;;;;;;;;;5057797;28;20084;-60
2021/03/10 09:42:03;;;;;;;13.57;9.07;;;;;;;;;;5057339;28;20017;-60
2021/03/10 09:44:44;;;;;;;13.25;9.07;;;;;;;;;;5056528;28;20029;-60
2021/03/10 09:47:19;;;;;;;162.98;61.95;;;;;;;;;;5055241;28;20024;-60
2021/03/10 09:49:46;;;;;;;131.27;52.47;;;;;;;;;;5072038;28;20055;-60
2021/03/10 09:52:11;;;;;;;15.98;9.95;;;;;;;;;;5072470;28;20072;-60
2021/03/10 09:54:47;;;;;;;17.52;8.23;;;;;;;;;;5056377;28;20503;-60
2021/03/10 09:57:20;;;;;;;13.80;8.50;;;;;;;;;;5056743;28;20119;-60
2021/03/10 09:59:50;;;;;;;32.33;15.75;;;;;;;;;;5056761;28;20036;-60
2021/03/10 10:02:21;;;;;;;11.60;7.30;;;;;;;;;;5056802;28;20028;-60
2021/03/10 10:04:57;;;;;;;13.68;7.43;;;;;;;;;;5056769;28;20032;-60
2021/03/10 10:07:23;;;;;;;16.85;12.25;;;;;;;;;;5056895;28;20532;-60
2021/03/10 10:09:57;;;;;;;8.90;8.00;;;;;;;;;;5056976;28;20475;-59
2021/03/10 10:12:23;;;;;;;19.05;10.13;;;;;;;;;;5074669;28;20038;-60
2021/03/10 10:14:56;;;;;;;9.23;6.97;;;;;;;;;;5041302;28;20052;-60
2021/03/10 10:17:27;;;;;;;12.70;10.32;;;;;;;;;;5056703;28;20028;-60
2021/03/10 10:19:57;;;;;;;9.63;6.57;;;;;;;;;;5074750;28;20028;-60
2021/03/10 10:22:22;;;;;;;10.23;6.85;;;;;;;;;;5056663;28;20086;-60
2021/03/10 10:24:48;;;;;;;18.40;13.13;;;;;;;;;;5074499;28;20528;-60
2021/03/10 10:27:13;;;;;;;9.43;7.22;;;;;;;;;;5056484;28;20143;-60
2021/03/10 10:29:39;;;;;;;10.65;6.90;;;;;;;;;;5074164;28;20039;-60
2021/03/10 10:32:05;;;;;;;10.43;6.32;;;;;;;;;;5056326;28;20040;-59
2021/03/10 10:34:31;;;;;;;9.95;6.50;;;;;;;;;;5056462;28;20017;-59
2021/03/10 10:36:58;;;;;;;8.90;6.80;;;;;;;;;;5056377;28;20085;-60
2021/03/10 10:39:40;;;;;;;11.65;7.75;;;;;;;;;;5056385;28;20017;-60
2021/03/10 10:42:07;;;;;;;10.50;7.38;;;;;;;;;;5056295;28;20029;-60
2021/03/10 10:44:33;;;;;;;17.35;12.65;;;;;;;;;;5056065;28;20077;-60
2021/03/10 10:46:59;;;;;;;11.73;8.00;;;;;;;;;;5056102;28;20032;-59
2021/03/10 10:49:26;;;;;;;8.30;6.65;;;;;;;;;;5056087;28;20023;-60
2021/03/10 10:51:52;;;;;;;10.30;6.63;;;;;;;;;;5055315;28;20044;-60
2021/03/10 10:54:26;;;;;;;10.10;6.45;;;;;;;;;;5072507;28;20399;-60
2021/03/10 10:56:52;;;;;;;10.18;7.20;;;;;;;;;;5056380;28;20413;-60
2021/03/10 10:59:27;;;;;;;11.50;7.55;;;;;;;;;;5055722;28;20467;-60
2021/03/10 11:01:55;;;;;;;11.48;7.10;;;;;;;;;;5055995;28;20433;-59
2021/03/10 11:04:21;;;;;;;10.88;7.03;;;;;;;;;;5056094;28;20021;-59
2021/03/10 11:06:48;;;;;;;11.70;8.10;;;;;;;;;;5073545;28;20028;-59
2021/03/10 11:09:13;;;;;;;8.77;7.88;;;;;;;;;;5073775;28;20108;-59
2021/03/10 11:11:40;;;;;;;10.18;7.82;;;;;;;;;;5056020;28;20115;-59
2021/03/10 11:14:05;;;;;;;12.20;9.13;;;;;;;;;;5055914;28;20039;-59
2021/03/10 11:16:43;;;;;;;9.50;8.10;;;;;;;;;;5055181;28;20032;-59
2021/03/10 11:19:13;;;;;;;;;;;;;;;;;;5055988;28;20036;-59
2021/03/10 11:21:41;;;;;;;17.85;11.75;;;;;;;;;;5072561;28;19928;-59
2021/03/10 11:24:11;;;;;;;13.98;9.43;;;;;;;;;;5055490;28;20382;-60
2021/03/10 11:26:38;;;;;;;10.02;8.27;;;;;;;;;;5055529;28;20029;-59
2021/03/10 11:29:03;;;;;;;13.57;10.05;;;;;;;;;;5055356;28;20103;-59
2021/03/10 11:31:30;;;;;;;11.63;8.25;;;;;;;;;;5055133;28;20024;-59
2021/03/10 11:33:57;;;;;;;288.65;108.07;;;;;;;;;;5072794;28;20024;-59
2021/03/10 11:36:22;;;;;;;131.20;53.33;;;;;;;;;;5055369;28;20028;-59
2021/03/10 11:38:52;;;;;;;10.30;8.50;;;;;;;;;;5055203;28;20028;-58
2021/03/10 11:41:18;;;;;;;17.05;9.55;;;;;;;;;;5055004;28;20036;-59
2021/03/10 11:43:43;;;;;;;229.40;78.93;;;;;;;;;;5073263;28;20356;-59
2021/03/10 11:46:09;;;;;;;565.47;222.48;;;;;;;;;;5073607;28;20056;-59
2021/03/10 11:48:34;;;;;;;673.90;241.93;;;;;;;;;;5073449;28;20017;-59
2021/03/10 11:51:00;;;;;;;574.05;204.10;;;;;;;;;;5073047;28;20071;-59
2021/03/10 11:53:25;;;;;;;11.45;9.00;;;;;;;;;;5073064;28;20036;-60
2021/03/10 11:55:51;;;;;;;15.13;10.85;;;;;;;;;;5073268;28;20424;-59
2021/03/10 11:58:18;;;;;;;16.25;11.45;;;;;;;;;;5073144;28;20016;-59
2021/03/10 12:00:44;;;;;;;23.42;14.48;;;;;;;;;;5055242;28;20029;-59
2021/03/10 12:03:15;;;;;;;19.52;12.60;;;;;;;;;;5071894;28;20123;-59
2021/03/10 12:05:51;;;;;;;23.65;12.43;;;;;;;;;;5071810;28;20024;-59
2021/03/10 12:08:17;;;;;;;18.17;12.35;;;;;;;;;;5072656;28;20082;-59
2021/03/10 12:10:42;;;;;;;23.98;10.23;;;;;;;;;;5052731;28;20060;-59
2021/03/10 12:13:08;;;;;;;11.02;8.50;;;;;;;;;;5052941;28;20032;-59
2021/03/10 12:15:33;;;;;;;337.63;117.85;;;;;;;;;;5052804;28;20024;-59
2021/03/10 12:17:59;;;;;;;67.22;27.55;;;;;;;;;;5052830;28;20025;-59
2021/03/10 12:20:25;;;;;;;1087.35;531.08;;;;;;;;;;5052700;28;20432;-59
2021/03/10 12:22:51;;;;;;;741.35;338.10;;;;;;;;;;5052791;28;20147;-59
2021/03/10 12:25:16;;;;;;;264.98;110.78;;;;;;;;;;5044800;28;20079;-60
2021/03/10 12:27:42;;;;;;;28.77;17.98;;;;;;;;;;5073117;28;20123;-59
2021/03/10 12:30:07;;;;;;;14.00;9.27;;;;;;;;;;5076659;28;20020;-59
2021/03/10 12:32:35;;;;;;;13.70;12.00;;;;;;;;;;5075274;28;20115;-59
2021/03/10 12:35:01;;;;;;;23.20;17.63;;;;;;;;;;5067485;28;20406;-60
2021/03/10 12:37:27;;;;;;;17.48;12.43;;;;;;;;;;5076636;28;20028;-60
2021/03/10 12:39:52;;;;;;;208.75;82.00;;;;;;;;;;5058640;28;20020;-60
2021/03/10 12:42:18;;;;;;;251.95;94.90;;;;;;;;;;5075341;28;20035;-60
2021/03/10 12:44:45;;;;;;;34.10;15.82;;;;;;;;;;5075952;28;20016;-60
2021/03/10 12:47:11;;;;;;;21.00;16.73;;;;;;;;;;5071994;28;20033;-60
2021/03/10 12:49:37;;;;;;;12.85;9.75;;;;;;;;;;5055988;28;20027;-59
2021/03/10 12:52:03;;;;;;;12.25;8.88;;;;;;;;;;5070761;28;20099;-60
2021/03/10 12:54:28;;;;;;;12.45;10.55;;;;;;;;;;5076520;28;20033;-59
2021/03/10 12:56:54;;;;;;;13.32;10.52;;;;;;;;;;5075843;28;20107;-59
2021/03/10 12:59:23;;;;;;;21.60;10.50;;;;;;;;;;5075100;28;20033;-59
2021/03/10 13:01:48;;;;;;;11.38;10.18;;;;;;;;;;5075596;28;20078;-59
2021/03/10 13:04:14;;;;;;;15.38;11.13;;;;;;;;;;5057663;28;20029;-59
2021/03/10 13:06:40;;;;;;;11.63;9.23;;;;;;;;;;5076199;28;20033;-59
2021/03/10 13:09:06;;;;;;;15.73;10.60;;;;;;;;;;5076300;28;20024;-59
2021/03/10 13:11:31;;;;;;;12.98;10.00;;;;;;;;;;5076102;28;20021;-59
2021/03/10 13:13:57;;;;;;;15.07;11.80;;;;;;;;;;5075859;28;20078;-59
2021/03/10 13:16:23;;;;;;;22.65;11.95;;;;;;;;;;5076559;28;20052;-59
2021/03/10 13:18:49;;;;;;;10.15;8.77;;;;;;;;;;5076041;28;20028;-59
2021/03/10 13:21:15;;;;;;;12.18;9.45;;;;;;;;;;5074820;28;20032;-59
2021/03/10 13:23:40;;;;;;;10.63;8.52;;;;;;;;;;5075843;28;20024;-59
2021/03/10 13:26:08;;;;;;;12.23;9.57;;;;;;;;;;5072763;28;20541;-59
2021/03/10 13:28:33;;;;;;;16.60;10.23;;;;;;;;;;5056913;28;20059;-59
2021/03/10 13:30:59;;;;;;;17.20;9.45;;;;;;;;;;5075840;28;20052;-59
2021/03/10 13:33:24;;;;;;;15.98;10.50;;;;;;;;;;5075768;28;20044;-60
2021/03/10 13:35:50;;;;;;;12.90;9.90;;;;;;;;;;5075444;28;20017;-59
2021/03/10 13:38:16;;;;;;;16.50;9.45;;;;;;;;;;5075181;28;20012;-59
2021/03/10 13:40:42;;;;;;;11.13;8.55;;;;;;;;;;5074861;28;20020;-59
2021/03/10 13:43:08;;;;;;;14.75;8.07;;;;;;;;;;5075009;28;20063;-58
2021/03/10 13:45:33;;;;;;;11.30;9.25;;;;;;;;;;5075266;28;20170;-59
2021/03/10 13:47:59;;;;;;;12.80;9.35;;;;;;;;;;5057203;28;20048;-59
2021/03/10 13:50:24;;;;;;;15.10;10.32;;;;;;;;;;5074624;28;20028;-59
2021/03/10 13:52:50;;;;;;;14.10;9.55;;;;;;;;;;5075042;28;20495;-60
2021/03/10 13:55:17;;;;;;;14.35;10.95;;;;;;;;;;5075163;28;20075;-59
2021/03/10 13:57:42;;;;;;;11.88;9.85;;;;;;;;;;5057140;28;20099;-59
2021/03/10 14:00:08;;;;;;;16.20;11.10;;;;;;;;;;5075440;28;20489;-59
2021/03/10 14:02:38;;;;;;;11.95;9.13;;;;;;;;;;5074997;28;20104;-59
2021/03/10 14:05:04;;;;;;;12.25;9.60;;;;;;;;;;5075143;28;20119;-59
2021/03/10 14:07:29;;;;;;;14.77;10.23;;;;;;;;;;5075026;28;20020;-59
2021/03/10 14:09:55;;;;;;;16.63;9.40;;;;;;;;;;5056749;28;20451;-59
2021/03/10 14:12:21;;;;;;;10.93;9.05;;;;;;;;;;5075019;28;20031;-59
2021/03/10 14:14:46;;;;;;;15.68;6.97;;;;;;;;;;5074925;28;20020;-59
2021/03/10 14:17:12;;;;;;;15.13;8.32;;;;;;;;;;5074138;28;20028;-59
2021/03/10 14:19:38;;;;;;;10.93;8.57;;;;;;;;;;5071717;28;20470;-59